MDSA weather

San Juan De La Maguana Airport
San Juan de la Maguana, San Juan Province, Dominican Republic

Public forecast

Using degrees Celsius for public forecast. Weather courtesy of forecast.io.

Closest aviation weather report (METAR) to San Juan De La Maguana Airport

Report is more than 2 hours old.

Closest report is Maria Montez International Airport, 35.0 nm (64.9 km) S. Retrieved 2020/02/25 23:00 UTC (6 hours ago):

MDBH 252300Z 13011KT 9999 FEW022 27/20 Q1014

Closest aviation forecast (TAF) to San Juan De La Maguana Airport

Closest forecast is Maria Montez International Airport, 35.0 nm (64.9 km) S. Retrieved 2020-02-26 00:02 UTC (5 hours ago):

TAF MDBH 252200Z 2600/2700 13010KT 9999 FEW020 SCT300 BECMG 2608/2610 00000KT